createdAt,value
2023-03-21T00:01:53.304Z,55040.19
2023-03-21T00:04:22.166Z,55002.41
2023-03-21T00:06:52.655Z,55099.88
2023-03-21T00:09:21.861Z,55169.50
2023-03-21T00:11:50.550Z,55177.44
2023-03-21T00:14:20.133Z,55247.06
2023-03-21T00:16:51.087Z,55280.88
2023-03-21T00:19:20.931Z,55308.72
2023-03-21T00:22:08.786Z,55310.72
2023-03-21T00:24:39.474Z,55326.63
2023-03-21T00:27:34.529Z,55364.41
2023-03-21T00:29:57.189Z,55408.19
2023-03-21T00:32:25.855Z,55495.69
2023-03-21T00:35:11.851Z,55551.41
2023-03-21T00:37:43.213Z,55638.94
2023-03-21T00:40:26.649Z,55619.03
2023-03-21T00:42:56.225Z,55682.69
2023-03-21T00:45:25.031Z,55654.84
2023-03-21T00:47:53.567Z,55690.66
2023-03-21T00:50:22.725Z,55652.84
2023-03-21T00:52:51.432Z,55511.63
2023-03-21T00:55:21.539Z,55449.94
2023-03-21T00:57:59.619Z,55479.78
2023-03-21T01:00:30.824Z,55434.03
2023-03-21T01:03:17.473Z,55471.84
2023-03-21T01:06:07.208Z,55515.59
2023-03-21T01:08:52.227Z,55603.13
2023-03-21T01:11:25.848Z,55682.69
2023-03-21T01:14:07.180Z,55756.31
2023-03-21T01:16:43.899Z,55746.34
2023-03-21T01:19:25.029Z,55825.94
2023-03-21T01:21:55.482Z,55899.53
2023-03-21T01:24:24.384Z,55961.22
2023-03-21T01:26:54.271Z,56052.72
2023-03-21T01:29:22.855Z,56140.28
2023-03-21T01:31:51.406Z,56279.56
2023-03-21T01:34:19.847Z,56383.03
2023-03-21T01:36:48.601Z,56398.94
2023-03-21T01:39:21.691Z,56496.44
2023-03-21T01:41:51.329Z,56572.06
2023-03-21T01:44:27.742Z,56713.34
2023-03-21T01:47:11.164Z,56806.88
2023-03-21T01:50:05.163Z,56964.06
2023-03-21T01:53:04.169Z,57067.56
2023-03-21T01:55:36.646Z,57254.63
2023-03-21T01:58:12.800Z,57391.97
2023-03-21T02:01:02.854Z,57632.81
2023-03-21T02:03:51.401Z,57853.75
2023-03-21T02:06:47.593Z,58054.81
2023-03-21T02:09:34.909Z,58198.16
2023-03-21T02:12:06.928Z,58275.81
2023-03-21T02:14:38.198Z,58385.31
2023-03-21T02:17:30.986Z,58560.50
2023-03-21T02:20:44.106Z,58662.06
2023-03-21T02:23:47.675Z,58938.81
2023-03-21T02:26:52.478Z,59161.84
2023-03-21T02:30:06.058Z,59442.66
2023-03-21T02:32:52.107Z,59795.16
2023-03-21T02:35:39.095Z,60105.91
2023-03-21T02:38:20.379Z,60460.47
2023-03-21T02:41:03.428Z,60749.34
2023-03-21T02:43:37.291Z,61141.88
2023-03-21T02:46:11.936Z,61428.81
2023-03-21T02:48:50.916Z,61663.94
2023-03-21T02:51:23.858Z,61831.34
2023-03-21T02:54:23.685Z,62058.56
2023-03-21T02:56:49.150Z,62158.22
2023-03-21T02:59:21.101Z,62206.03
2023-03-21T03:01:52.009Z,62469.16
2023-03-21T03:04:22.451Z,62453.22
2023-03-21T03:07:07.018Z,62493.06
2023-03-21T03:09:49.583Z,62532.94
2023-03-21T03:12:28.010Z,62662.50
2023-03-21T03:15:05.299Z,62652.53
2023-03-21T03:17:48.362Z,63037.31
2023-03-21T03:20:24.957Z,63471.94
2023-03-21T03:23:06.441Z,63844.81
2023-03-21T03:25:44.174Z,64642.56
2023-03-21T03:28:22.895Z,65691.88
2023-03-21T03:31:07.485Z,67064.88
2023-03-21T03:33:47.048Z,67887.31
2023-03-21T03:36:31.622Z,69113.38
2023-03-21T03:39:07.387Z,69764.53
2023-03-21T03:42:05.922Z,71187.13
2023-03-21T03:44:38.693Z,72210.47
2023-03-21T03:47:17.526Z,72722.25
2023-03-21T03:50:02.349Z,74002.03
2023-03-21T03:52:40.057Z,75282.31
2023-03-21T03:55:17.831Z,76050.72
2023-03-21T03:57:50.744Z,77588.03
2023-03-21T04:00:20.985Z,78613.28
2023-03-21T04:02:51.865Z,79638.84
2023-03-21T04:05:24.549Z,80664.72
2023-03-21T04:07:55.073Z,81947.50
2023-03-21T04:10:32.344Z,82974.03
2023-03-21T04:13:03.421Z,83744.16
2023-03-21T04:15:46.775Z,85028.06
2023-03-21T04:18:17.984Z,86055.56
2023-03-21T04:20:48.694Z,87083.34
2023-03-21T04:23:18.984Z,87854.38
2023-03-21T04:25:56.368Z,88882.69
2023-03-21T04:28:37.143Z,89654.13
2023-03-21T04:31:27.676Z,89911.31
2023-03-21T04:34:10.107Z,90940.22
2023-03-21T04:36:44.694Z,91454.81
2023-03-21T04:39:13.677Z,92226.81
2023-03-21T04:41:46.396Z,92741.59
2023-03-21T04:44:17.613Z,93513.91
2023-03-21T04:46:46.342Z,94543.91
2023-03-21T04:49:14.922Z,94801.44
2023-03-21T04:51:45.452Z,95574.19
2023-03-21T04:54:19.178Z,96089.47
2023-03-21T04:56:47.687Z,96862.50
2023-03-21T04:59:17.688Z,97635.72
2023-03-21T05:01:46.803Z,98151.31
2023-03-21T05:04:16.347Z,98666.94
2023-03-21T05:06:45.962Z,99440.56
2023-03-21T05:09:15.454Z,99956.41
2023-03-21T05:11:45.062Z,100472.31
2023-03-21T05:14:19.590Z,100730.31
2023-03-21T05:16:53.607Z,101246.34
2023-03-21T05:19:25.976Z,101762.47
2023-03-21T05:21:55.112Z,102020.53
2023-03-21T05:24:27.843Z,102278.66
2023-03-21T05:26:56.624Z,102536.75
2023-03-21T05:29:33.291Z,102794.91
2023-03-21T05:32:07.967Z,103053.06
2023-03-21T05:34:36.620Z,103569.44
2023-03-21T05:37:06.065Z,103569.44
2023-03-21T05:39:48.185Z,103569.44
2023-03-21T05:42:27.491Z,103827.66
2023-03-21T05:44:58.123Z,103827.66
2023-03-21T05:47:32.478Z,103827.66
2023-03-21T05:50:02.112Z,103827.66
2023-03-21T05:52:32.169Z,103827.66
2023-03-21T05:55:01.417Z,104085.91
2023-03-21T05:57:30.135Z,103827.66
2023-03-21T06:00:03.843Z,104085.91
2023-03-21T06:02:44.214Z,103827.66
2023-03-21T06:05:47.961Z,103569.44
2023-03-21T06:08:22.764Z,103311.25
2023-03-21T06:10:55.743Z,102794.91
2023-03-21T06:13:25.263Z,103053.06
2023-03-21T06:15:55.901Z,103311.25
2023-03-21T06:18:28.150Z,103311.25
2023-03-21T06:21:19.484Z,103569.44
2023-03-21T06:23:51.740Z,103827.66
2023-03-21T06:26:23.097Z,103569.44
2023-03-21T06:28:54.333Z,103569.44
2023-03-21T06:31:25.344Z,103569.44
2023-03-21T06:33:56.895Z,103311.25
2023-03-21T06:36:25.415Z,103569.44
2023-03-21T06:38:54.231Z,103569.44
2023-03-21T06:41:22.904Z,103569.44
2023-03-21T06:43:59.379Z,103569.44
2023-03-21T06:46:30.373Z,103569.44
2023-03-21T06:48:59.956Z,103569.44
2023-03-21T06:51:31.051Z,103569.44
2023-03-21T06:54:14.692Z,103569.44
2023-03-21T06:57:04.454Z,102794.91
2023-03-21T06:59:36.330Z,102794.91
2023-03-21T07:02:11.670Z,102536.75
2023-03-21T07:04:58.794Z,102536.75
2023-03-21T07:07:30.656Z,102794.91
2023-03-21T07:09:59.092Z,102278.66
2023-03-21T07:12:34.250Z,102278.66
2023-03-21T07:15:13.186Z,101762.47
2023-03-21T07:17:45.140Z,102278.66
2023-03-21T07:20:14.250Z,102020.53
2023-03-21T07:22:42.926Z,101762.47
2023-03-21T07:25:12.304Z,101504.38
2023-03-21T07:27:42.335Z,101246.34
2023-03-21T07:30:12.478Z,100730.31
2023-03-21T07:32:41.382Z,100730.31
2023-03-21T07:35:14.518Z,100472.31
2023-03-21T07:37:44.024Z,100472.31
2023-03-21T07:40:16.827Z,100214.34
2023-03-21T07:42:46.031Z,99956.41
2023-03-21T07:45:21.306Z,99698.47
2023-03-21T07:47:50.631Z,99956.41
2023-03-21T07:50:21.023Z,99956.41
2023-03-21T07:52:49.741Z,99698.47
2023-03-21T07:55:18.824Z,99698.47
2023-03-21T07:57:47.348Z,99440.56
2023-03-21T08:00:23.151Z,100214.34
2023-03-21T08:02:58.406Z,100214.34
2023-03-21T08:05:30.716Z,99956.41
2023-03-21T08:07:59.178Z,100214.34
2023-03-21T08:10:28.419Z,100214.34
2023-03-21T08:12:57.293Z,98924.81
2023-03-21T08:15:26.156Z,98409.13
2023-03-21T08:17:54.764Z,98151.31
2023-03-21T08:20:25.173Z,98666.94
2023-03-21T08:22:58.292Z,98666.94
2023-03-21T08:25:27.174Z,98409.13
2023-03-21T08:27:55.699Z,98924.81
2023-03-21T08:30:28.223Z,98409.13
2023-03-21T08:33:01.176Z,99182.69
2023-03-21T08:35:31.562Z,99698.47
2023-03-21T08:38:03.977Z,99698.47
2023-03-21T08:40:32.470Z,99440.56
2023-03-21T08:43:01.437Z,100214.34
2023-03-21T08:45:29.901Z,100730.31
2023-03-21T08:47:58.597Z,100988.31
2023-03-21T08:50:31.248Z,100988.31
2023-03-21T08:53:01.426Z,101504.38
2023-03-21T08:55:30.672Z,102020.53
2023-03-21T08:57:59.207Z,102278.66
2023-03-21T09:00:28.557Z,103569.44
2023-03-21T09:02:59.041Z,102278.66
2023-03-21T09:05:30.284Z,102794.91
2023-03-21T09:07:58.685Z,102536.75
2023-03-21T09:10:28.704Z,102020.53
2023-03-21T09:12:57.420Z,101504.38
2023-03-21T09:15:29.026Z,101246.34
2023-03-21T09:17:59.016Z,101762.47
2023-03-21T09:20:33.123Z,101504.38
2023-03-21T09:23:01.900Z,100214.34
2023-03-21T09:25:32.700Z,99956.41
2023-03-21T09:28:02.117Z,100472.31
2023-03-21T09:30:31.484Z,99956.41
2023-03-21T09:33:00.796Z,100214.34
2023-03-21T09:35:30.604Z,99440.56
2023-03-21T09:38:00.645Z,98924.81
2023-03-21T09:40:52.789Z,98151.31
2023-03-21T09:43:37.321Z,98409.13
2023-03-21T09:46:11.507Z,97635.72
2023-03-21T09:48:56.605Z,97635.72
2023-03-21T09:51:30.529Z,97120.22
2023-03-21T09:54:05.084Z,97893.50
2023-03-21T09:56:37.889Z,97893.50
2023-03-21T09:59:10.718Z,98409.13
2023-03-21T10:01:45.100Z,99182.69
2023-03-21T10:04:18.989Z,98924.81
2023-03-21T10:06:57.049Z,98409.13
2023-03-21T10:09:27.335Z,99182.69
2023-03-21T10:12:00.166Z,98924.81
2023-03-21T10:14:32.887Z,98666.94
2023-03-21T10:17:08.178Z,98409.13
2023-03-21T10:19:36.729Z,97893.50
2023-03-21T10:22:08.397Z,98924.81
2023-03-21T10:24:38.183Z,98409.13
2023-03-21T10:27:08.406Z,96604.81
2023-03-21T10:29:43.718Z,96604.81
2023-03-21T10:32:15.409Z,95831.81
2023-03-21T10:34:46.979Z,94028.84
2023-03-21T10:37:16.936Z,93256.44
2023-03-21T10:39:48.771Z,92226.81
2023-03-21T10:42:22.394Z,92484.19
2023-03-21T10:44:53.087Z,91197.50
2023-03-21T10:47:23.394Z,90682.97
2023-03-21T10:50:09.820Z,89911.31
2023-03-21T10:52:42.903Z,89654.13
2023-03-21T10:55:22.718Z,88625.56
2023-03-21T10:57:59.019Z,88625.56
2023-03-21T11:00:31.654Z,87083.34
2023-03-21T11:03:01.572Z,86569.41
2023-03-21T11:05:37.576Z,85798.66
2023-03-21T11:08:11.947Z,84771.25
2023-03-21T11:10:52.365Z,84514.44
2023-03-21T11:13:27.583Z,81947.50
2023-03-21T11:15:59.337Z,83487.44
2023-03-21T11:18:33.289Z,83744.16
2023-03-21T11:21:07.449Z,83230.72
2023-03-21T11:23:41.361Z,82204.09
2023-03-21T11:26:13.313Z,80151.75
2023-03-21T11:28:44.967Z,79382.44
2023-03-21T11:31:13.988Z,78613.28
2023-03-21T11:33:47.962Z,76306.91
2023-03-21T11:36:39.162Z,73490.06
2023-03-21T11:39:32.682Z,73234.09
2023-03-21T11:42:01.558Z,71698.75
2023-03-21T11:44:34.223Z,69091.41
2023-03-21T11:47:03.552Z,65825.56
2023-03-21T11:49:32.289Z,64343.41
2023-03-21T11:52:13.617Z,64052.22
2023-03-21T11:54:54.709Z,63220.72
2023-03-21T11:57:34.457Z,61994.78
2023-03-21T12:00:15.852Z,60362.88
2023-03-21T12:03:12.580Z,59872.84
2023-03-21T12:05:45.129Z,59920.66
2023-03-21T12:08:26.640Z,58550.56
2023-03-21T12:11:03.053Z,57746.28
2023-03-21T12:13:45.059Z,56458.63
2023-03-21T12:16:28.922Z,55485.75
2023-03-21T12:19:22.025Z,54912.91
2023-03-21T12:22:00.790Z,54743.84
2023-03-21T12:24:40.080Z,54624.53
2023-03-21T12:27:19.481Z,54501.22
2023-03-21T12:30:02.601Z,54399.81
2023-03-21T12:32:45.718Z,54326.25
2023-03-21T12:35:35.668Z,54300.38
2023-03-21T12:38:16.954Z,54246.69
2023-03-21T12:41:07.275Z,54127.38
2023-03-21T12:43:44.084Z,54095.56
2023-03-21T12:46:18.311Z,54043.88
2023-03-21T12:48:52.690Z,54006.09
2023-03-21T12:51:25.403Z,54008.09
2023-03-21T12:54:00.416Z,53962.34
2023-03-21T12:56:33.158Z,53938.50
2023-03-21T12:59:09.335Z,53916.63
2023-03-21T13:01:41.042Z,53936.50
2023-03-21T13:04:38.093Z,53936.50
2023-03-21T13:07:11.657Z,53870.88
2023-03-21T13:09:41.901Z,53872.88
2023-03-21T13:12:23.522Z,53849.03
2023-03-21T13:15:07.890Z,53829.13
2023-03-21T13:17:45.409Z,53809.25
2023-03-21T13:20:23.825Z,53713.81
2023-03-21T13:22:52.621Z,53735.69
2023-03-21T13:25:22.816Z,53717.78
2023-03-21T13:27:56.023Z,53662.13
2023-03-21T13:30:27.386Z,53678.03
2023-03-21T13:33:07.729Z,53684.00
2023-03-21T13:35:41.188Z,53616.41
2023-03-21T13:38:17.721Z,53634.28
2023-03-21T13:40:50.029Z,53620.38
2023-03-21T13:43:44.921Z,53616.41
2023-03-21T13:46:15.202Z,53634.28
2023-03-21T13:48:59.951Z,53624.34
2023-03-21T13:51:54.328Z,53626.34
2023-03-21T13:54:29.793Z,53630.31
2023-03-21T13:57:01.384Z,53646.22
2023-03-21T13:59:42.758Z,53638.28
2023-03-21T14:02:30.823Z,53654.19
2023-03-21T14:05:06.896Z,53650.19
2023-03-21T14:07:42.727Z,53646.22
2023-03-21T14:10:23.512Z,53620.38
2023-03-21T14:12:53.452Z,53634.28
2023-03-21T14:15:24.508Z,53630.31
2023-03-21T14:17:55.551Z,53626.34
2023-03-21T14:20:27.419Z,53590.56
2023-03-21T14:22:57.487Z,53618.38
2023-03-21T14:25:37.197Z,53594.53
2023-03-21T14:28:18.443Z,53610.44
2023-03-21T14:30:51.553Z,53610.44
2023-03-21T14:33:26.047Z,53588.56
2023-03-21T14:35:59.498Z,53598.50
2023-03-21T14:38:35.762Z,53590.56
2023-03-21T14:41:05.260Z,53600.50
2023-03-21T14:43:34.491Z,53630.31
2023-03-21T14:46:03.521Z,53602.47
2023-03-21T14:48:34.445Z,53618.38
2023-03-21T14:51:04.825Z,53634.28
2023-03-21T14:53:39.222Z,53658.16
2023-03-21T14:56:11.582Z,53622.38
2023-03-21T14:58:42.507Z,53634.28
2023-03-21T15:01:17.785Z,53616.41
2023-03-21T15:03:47.771Z,53620.38
2023-03-21T15:06:16.538Z,53618.38
2023-03-21T15:08:57.924Z,53596.53
2023-03-21T15:11:35.000Z,53646.22
2023-03-21T15:14:06.565Z,53626.34
2023-03-21T15:16:36.385Z,53648.22
2023-03-21T15:19:09.873Z,53606.47
2023-03-21T15:21:42.472Z,53634.28
2023-03-21T15:24:17.324Z,53632.31
2023-03-21T15:26:47.355Z,53642.25
2023-03-21T15:29:17.616Z,53626.34
2023-03-21T15:31:49.287Z,53622.38
2023-03-21T15:34:22.050Z,53658.16
2023-03-21T15:36:56.696Z,53662.13
2023-03-21T15:39:30.273Z,53646.22
2023-03-21T15:42:01.524Z,53636.28
2023-03-21T15:44:31.149Z,53646.22
2023-03-21T15:46:59.831Z,53646.22
2023-03-21T15:49:31.806Z,53662.13
2023-03-21T15:52:06.483Z,53650.19
2023-03-21T15:54:42.648Z,53650.19
2023-03-21T15:57:22.827Z,53630.31
2023-03-21T15:59:55.971Z,53660.13
2023-03-21T16:02:26.412Z,53646.22
2023-03-21T16:04:59.800Z,53650.19
2023-03-21T16:07:29.271Z,53642.25
2023-03-21T16:10:04.712Z,53680.03
2023-03-21T16:12:34.314Z,53626.34
2023-03-21T16:15:03.038Z,53654.19
2023-03-21T16:17:37.585Z,53691.94
2023-03-21T16:20:18.268Z,53666.09
2023-03-21T16:22:47.651Z,53666.09
2023-03-21T16:25:18.228Z,53654.19
2023-03-21T16:27:47.804Z,53646.22
2023-03-21T16:30:18.827Z,53682.00
2023-03-21T16:32:47.445Z,53670.09
2023-03-21T16:35:16.310Z,53680.03
2023-03-21T16:37:45.394Z,53695.94
2023-03-21T16:40:26.164Z,53701.88
2023-03-21T16:42:54.772Z,53725.75
2023-03-21T16:45:23.717Z,53707.84
2023-03-21T16:47:53.102Z,53660.13
2023-03-21T16:50:26.820Z,53670.09
2023-03-21T16:52:56.116Z,53717.78
2023-03-21T16:55:27.130Z,53703.88
2023-03-21T16:57:57.352Z,53707.84
2023-03-21T17:00:28.429Z,53717.78
2023-03-21T17:03:00.847Z,53723.75
2023-03-21T17:05:31.472Z,53761.53
2023-03-21T17:08:02.266Z,53751.59
2023-03-21T17:10:34.301Z,53725.75
2023-03-21T17:13:02.906Z,53785.41
2023-03-21T17:15:31.414Z,53761.53
2023-03-21T17:17:59.965Z,53803.28
2023-03-21T17:20:32.152Z,53779.44
2023-03-21T17:23:01.316Z,53803.28
2023-03-21T17:25:31.198Z,53817.22
2023-03-21T17:27:59.806Z,53801.31
2023-03-21T17:30:31.040Z,53827.16
2023-03-21T17:33:00.308Z,53821.19
2023-03-21T17:35:29.616Z,53868.91
2023-03-21T17:37:59.491Z,53856.97
2023-03-21T17:40:29.932Z,53928.56
2023-03-21T17:43:01.422Z,53890.78
2023-03-21T17:45:29.964Z,53918.59
2023-03-21T17:47:58.467Z,53888.78
2023-03-21T17:50:34.227Z,53928.56
2023-03-21T17:53:02.777Z,53920.59
2023-03-21T17:55:31.820Z,53956.38
2023-03-21T17:58:02.287Z,53948.44
2023-03-21T18:00:32.266Z,53968.31
2023-03-21T18:03:02.009Z,53972.28
2023-03-21T18:05:30.581Z,54039.91
2023-03-21T18:08:10.680Z,54111.47
2023-03-21T18:10:40.965Z,54105.50
2023-03-21T18:13:12.003Z,54196.97
2023-03-21T18:15:44.709Z,54248.69
2023-03-21T18:18:14.616Z,54290.44
2023-03-21T18:20:51.742Z,54312.31
2023-03-21T18:23:21.101Z,54346.13
2023-03-21T18:25:50.248Z,54389.88
2023-03-21T18:28:21.378Z,54457.47
2023-03-21T18:31:07.794Z,54537.03
2023-03-21T18:33:38.310Z,54582.78
2023-03-21T18:36:08.128Z,54618.56
2023-03-21T18:38:37.147Z,54668.28
2023-03-21T18:41:05.991Z,54698.13
2023-03-21T18:46:25.173Z,54801.53
2023-03-21T18:48:55.238Z,54873.13
2023-03-21T18:51:26.885Z,54893.03
2023-03-21T18:53:55.396Z,54942.75
2023-03-21T18:57:06.356Z,55016.34
2023-03-21T18:59:14.186Z,55085.94
2023-03-21T19:01:42.778Z,55171.47
2023-03-21T19:04:22.784Z,55241.09
2023-03-21T19:06:53.151Z,55364.41
2023-03-21T19:09:29.363Z,55451.94
2023-03-21T19:12:00.772Z,55509.63
2023-03-21T19:14:31.608Z,55535.50
2023-03-21T19:17:47.511Z,55571.28
2023-03-21T19:19:48.948Z,55627.00
2023-03-21T19:22:17.902Z,55732.44
2023-03-21T19:24:47.189Z,55780.19
2023-03-21T19:27:15.970Z,55837.88
2023-03-21T19:29:59.696Z,55851.78
2023-03-21T19:32:34.716Z,55979.13
2023-03-21T19:35:03.858Z,56072.63
2023-03-21T19:37:35.253Z,56154.22
2023-03-21T19:40:05.492Z,56235.78
2023-03-21T19:42:36.396Z,56237.78
2023-03-21T19:45:07.348Z,56291.50
2023-03-21T19:47:35.945Z,56365.13
2023-03-21T19:50:45.590Z,56383.03
2023-03-21T19:52:55.951Z,56424.81
2023-03-21T19:55:24.671Z,56518.31
2023-03-21T19:57:53.747Z,56595.94
2023-03-21T20:00:24.186Z,56671.53
2023-03-21T20:02:52.821Z,56709.34
2023-03-21T20:05:22.398Z,56697.41
2023-03-21T20:07:51.172Z,56689.44
2023-03-21T20:10:20.014Z,56621.78
2023-03-21T20:12:49.172Z,56637.72
2023-03-21T20:15:25.932Z,56707.38
2023-03-21T20:17:58.756Z,56723.28
2023-03-21T20:20:27.714Z,56781.00
2023-03-21T20:23:06.953Z,56816.81
2023-03-21T20:25:39.877Z,56836.72
2023-03-21T20:28:24.305Z,56904.38
2023-03-21T20:30:59.772Z,56944.19
2023-03-21T20:33:30.495Z,56924.28
2023-03-21T20:38:51.481Z,57085.47
2023-03-21T20:41:20.726Z,57181.00
2023-03-21T20:46:38.946Z,57242.69
2023-03-21T20:49:09.176Z,57260.63
2023-03-21T20:54:26.786Z,57312.34
2023-03-21T20:56:57.760Z,57310.38
2023-03-21T20:59:28.099Z,57250.66
2023-03-21T21:01:58.426Z,57204.88
2023-03-21T21:05:11.806Z,57312.34
2023-03-21T21:07:21.932Z,57346.19
2023-03-21T21:09:51.657Z,57366.09
2023-03-21T21:12:20.784Z,57435.75
2023-03-21T21:14:49.889Z,57433.78
2023-03-21T21:20:17.179Z,57535.28
2023-03-21T21:22:58.607Z,57497.47
2023-03-21T21:25:29.084Z,57533.28
2023-03-21T21:27:57.582Z,57573.09
2023-03-21T21:30:26.200Z,57716.41
2023-03-21T21:32:54.802Z,57604.94
2023-03-21T21:35:24.659Z,57549.22
2023-03-21T21:37:54.020Z,57413.88
2023-03-21T21:40:23.614Z,57360.13
2023-03-21T21:42:52.325Z,57222.78
2023-03-21T21:45:21.027Z,57039.69
2023-03-21T21:47:49.842Z,56950.16
2023-03-21T21:50:20.374Z,56898.41
2023-03-21T21:52:54.811Z,56846.66
2023-03-21T21:55:23.712Z,56968.06
2023-03-21T21:57:53.079Z,57015.81
2023-03-21T22:00:22.057Z,56991.94
2023-03-21T22:02:50.763Z,57055.63
2023-03-21T22:05:21.094Z,57159.09
2023-03-21T22:07:53.067Z,57119.31
2023-03-21T22:10:22.776Z,57063.59
2023-03-21T22:12:51.816Z,57011.84
2023-03-21T22:15:22.574Z,57027.75
2023-03-21T22:17:51.847Z,57031.75
2023-03-21T22:20:22.512Z,56896.41
2023-03-21T22:22:52.714Z,56852.63
2023-03-21T22:25:21.427Z,56940.19
2023-03-21T22:27:50.004Z,56868.56
2023-03-21T22:30:19.748Z,56838.69
2023-03-21T22:33:02.522Z,56832.72
2023-03-21T22:35:35.021Z,56715.31
2023-03-21T22:38:04.898Z,56685.47
2023-03-21T22:40:33.572Z,56743.19
2023-03-21T22:43:02.053Z,56713.34
2023-03-21T22:45:30.558Z,56725.28
2023-03-21T22:47:59.967Z,56705.38
2023-03-21T22:50:29.109Z,56665.56
2023-03-21T22:52:57.797Z,56669.56
2023-03-21T22:55:27.761Z,56576.03
2023-03-21T22:57:56.617Z,56516.34
2023-03-21T23:00:25.234Z,56480.53
2023-03-21T23:02:53.677Z,56454.66
2023-03-21T23:05:21.974Z,56398.94
2023-03-21T23:07:50.624Z,56301.44
2023-03-21T23:10:19.463Z,56162.16
2023-03-21T23:12:49.453Z,56092.53
2023-03-21T23:15:19.589Z,56046.75
2023-03-21T23:17:48.088Z,56046.75
2023-03-21T23:20:17.174Z,56028.84
2023-03-21T23:22:45.734Z,56074.63
2023-03-21T23:25:14.382Z,56060.69
2023-03-21T23:27:42.872Z,56088.53
2023-03-21T23:30:13.175Z,56112.41
2023-03-21T23:32:41.713Z,56164.16
2023-03-21T23:35:11.041Z,56213.91
2023-03-21T23:37:42.460Z,56271.59
2023-03-21T23:40:12.674Z,56363.13
2023-03-21T23:42:41.318Z,56365.13
2023-03-21T23:45:10.888Z,56422.81
2023-03-21T23:47:40.656Z,56387.00
2023-03-21T23:50:10.533Z,56474.53
2023-03-21T23:52:41.575Z,56510.38
2023-03-21T23:55:10.879Z,56607.88
2023-03-21T23:57:41.910Z,56699.41
